sensor_id;sensor_type;location;lat;lon;timestamp;temperature;humidity
8979;DHT22;4524;51.364;5.448;2022-12-18T00:01:58;-2.90;99.90
8979;DHT22;4524;51.364;5.448;2022-12-18T00:04:27;-2.90;99.90
8979;DHT22;4524;51.364;5.448;2022-12-18T00:06:55;-3.00;99.90
8979;DHT22;4524;51.364;5.448;2022-12-18T00:09:23;-3.00;99.90
8979;DHT22;4524;51.364;5.448;2022-12-18T00:12:06;-3.10;99.90
8979;DHT22;4524;51.364;5.448;2022-12-18T00:14:41;-3.00;99.90
8979;DHT22;4524;51.364;5.448;2022-12-18T00:17:11;-2.90;99.90
8979;DHT22;4524;51.364;5.448;2022-12-18T00:19:39;-2.90;99.90
8979;DHT22;4524;51.364;5.448;2022-12-18T00:22:07;-2.80;99.90
8979;DHT22;4524;51.364;5.448;2022-12-18T00:24:35;-2.90;99.90
8979;DHT22;4524;51.364;5.448;2022-12-18T00:27:03;-2.90;99.90
8979;DHT22;4524;51.364;5.448;2022-12-18T00:29:31;-2.90;99.90
8979;DHT22;4524;51.364;5.448;2022-12-18T00:31:59;-3.00;99.90
8979;DHT22;4524;51.364;5.448;2022-12-18T00:34:28;-3.00;99.90
8979;DHT22;4524;51.364;5.448;2022-12-18T00:36:56;-3.10;99.90
8979;DHT22;4524;51.364;5.448;2022-12-18T00:39:24;-3.20;99.90
8979;DHT22;4524;51.364;5.448;2022-12-18T00:41:52;-3.20;99.90
8979;DHT22;4524;51.364;5.448;2022-12-18T00:44:38;-3.30;99.90
8979;DHT22;4524;51.364;5.448;2022-12-18T00:47:06;-3.30;99.90
8979;DHT22;4524;51.364;5.448;2022-12-18T00:49:36;-3.40;99.90
8979;DHT22;4524;51.364;5.448;2022-12-18T00:52:04;-3.40;99.90
8979;DHT22;4524;51.364;5.448;2022-12-18T00:54:32;-3.40;99.90
8979;DHT22;4524;51.364;5.448;2022-12-18T00:57:00;-3.50;99.90
8979;DHT22;4524;51.364;5.448;2022-12-18T00:59:29;-3.40;99.90
8979;DHT22;4524;51.364;5.448;2022-12-18T01:01:57;-3.40;99.90
8979;DHT22;4524;51.364;5.448;2022-12-18T01:04:25;-3.40;99.90
8979;DHT22;4524;51.364;5.448;2022-12-18T01:06:55;-3.40;99.90
8979;DHT22;4524;51.364;5.448;2022-12-18T01:09:23;-3.40;99.90
8979;DHT22;4524;51.364;5.448;2022-12-18T01:11:51;-3.40;99.90
8979;DHT22;4524;51.364;5.448;2022-12-18T01:14:19;-3.30;99.90
8979;DHT22;4524;51.364;5.448;2022-12-18T01:16:47;-3.30;99.90
8979;DHT22;4524;51.364;5.448;2022-12-18T01:19:15;-3.40;99.90
8979;DHT22;4524;51.364;5.448;2022-12-18T01:21:45;-3.40;99.90
8979;DHT22;4524;51.364;5.448;2022-12-18T01:24:15;-3.50;99.90
8979;DHT22;4524;51.364;5.448;2022-12-18T01:26:43;-3.50;99.90
8979;DHT22;4524;51.364;5.448;2022-12-18T01:29:13;-3.60;99.90
8979;DHT22;4524;51.364;5.448;2022-12-18T01:31:41;-3.70;99.90
8979;DHT22;4524;51.364;5.448;2022-12-18T01:34:09;-3.70;99.90
8979;DHT22;4524;51.364;5.448;2022-12-18T01:36:38;-3.60;99.90
8979;DHT22;4524;51.364;5.448;2022-12-18T01:39:09;-3.60;99.90
8979;DHT22;4524;51.364;5.448;2022-12-18T01:41:42;-3.50;99.90
8979;DHT22;4524;51.364;5.448;2022-12-18T01:44:55;-3.60;99.90
8979;DHT22;4524;51.364;5.448;2022-12-18T01:47:26;-3.70;99.90
8979;DHT22;4524;51.364;5.448;2022-12-18T01:49:55;-3.60;99.90
8979;DHT22;4524;51.364;5.448;2022-12-18T01:52:27;-3.60;99.90
8979;DHT22;4524;51.364;5.448;2022-12-18T01:54:56;-3.70;99.90
8979;DHT22;4524;51.364;5.448;2022-12-18T01:57:27;-3.70;99.90
8979;DHT22;4524;51.364;5.448;2022-12-18T01:59:59;-3.70;99.90
8979;DHT22;4524;51.364;5.448;2022-12-18T02:02:40;-3.80;99.90
8979;DHT22;4524;51.364;5.448;2022-12-18T02:05:09;-3.80;99.90
8979;DHT22;4524;51.364;5.448;2022-12-18T02:07:45;-3.90;99.90
8979;DHT22;4524;51.364;5.448;2022-12-18T02:10:22;-3.80;99.90
8979;DHT22;4524;51.364;5.448;2022-12-18T02:12:58;-3.90;99.90
8979;DHT22;4524;51.364;5.448;2022-12-18T02:15:36;-3.90;99.90
8979;DHT22;4524;51.364;5.448;2022-12-18T02:18:08;-3.90;99.90
8979;DHT22;4524;51.364;5.448;2022-12-18T02:20:43;-4.00;99.90
8979;DHT22;4524;51.364;5.448;2022-12-18T02:23:24;-3.90;99.90
8979;DHT22;4524;51.364;5.448;2022-12-18T02:26:11;-3.90;99.90
8979;DHT22;4524;51.364;5.448;2022-12-18T02:28:45;-3.90;99.90
8979;DHT22;4524;51.364;5.448;2022-12-18T02:31:17;-3.90;99.90
8979;DHT22;4524;51.364;5.448;2022-12-18T02:33:46;-4.00;99.90
8979;DHT22;4524;51.364;5.448;2022-12-18T02:36:16;-4.10;99.90
8979;DHT22;4524;51.364;5.448;2022-12-18T02:38:47;-4.00;99.90
8979;DHT22;4524;51.364;5.448;2022-12-18T02:41:18;-4.00;99.90
8979;DHT22;4524;51.364;5.448;2022-12-18T02:43:47;-4.00;99.90
8979;DHT22;4524;51.364;5.448;2022-12-18T02:46:33;-4.00;99.90
8979;DHT22;4524;51.364;5.448;2022-12-18T02:49:21;-4.00;99.90
8979;DHT22;4524;51.364;5.448;2022-12-18T02:51:54;-4.10;99.90
8979;DHT22;4524;51.364;5.448;2022-12-18T02:54:41;-4.10;99.90
8979;DHT22;4524;51.364;5.448;2022-12-18T02:57:20;-4.10;99.90
8979;DHT22;4524;51.364;5.448;2022-12-18T02:59:57;-4.10;99.90
8979;DHT22;4524;51.364;5.448;2022-12-18T03:02:33;-4.20;99.90
8979;DHT22;4524;51.364;5.448;2022-12-18T03:05:09;-4.10;99.90
8979;DHT22;4524;51.364;5.448;2022-12-18T03:07:43;-4.10;99.90
8979;DHT22;4524;51.364;5.448;2022-12-18T03:10:18;-4.10;99.90
8979;DHT22;4524;51.364;5.448;2022-12-18T03:12:52;-4.20;99.90
8979;DHT22;4524;51.364;5.448;2022-12-18T03:15:25;-4.10;99.90
8979;DHT22;4524;51.364;5.448;2022-12-18T03:18:08;-4.10;99.90
8979;DHT22;4524;51.364;5.448;2022-12-18T03:20:39;-4.10;99.90
8979;DHT22;4524;51.364;5.448;2022-12-18T03:23:14;-4.10;99.90
8979;DHT22;4524;51.364;5.448;2022-12-18T03:25:47;-4.20;99.90
8979;DHT22;4524;51.364;5.448;2022-12-18T03:28:21;-4.20;99.90
8979;DHT22;4524;51.364;5.448;2022-12-18T03:30:58;-4.20;99.90
8979;DHT22;4524;51.364;5.448;2022-12-18T03:33:32;-4.20;99.90
8979;DHT22;4524;51.364;5.448;2022-12-18T03:36:03;-4.20;99.90
8979;DHT22;4524;51.364;5.448;2022-12-18T03:38:32;-4.20;99.90
8979;DHT22;4524;51.364;5.448;2022-12-18T03:41:07;-4.20;99.90
8979;DHT22;4524;51.364;5.448;2022-12-18T03:43:54;-4.20;99.90
8979;DHT22;4524;51.364;5.448;2022-12-18T03:46:28;-4.20;99.90
8979;DHT22;4524;51.364;5.448;2022-12-18T03:49:01;-4.20;99.90
8979;DHT22;4524;51.364;5.448;2022-12-18T03:51:37;-4.20;99.90
8979;DHT22;4524;51.364;5.448;2022-12-18T03:54:08;-4.20;99.90
8979;DHT22;4524;51.364;5.448;2022-12-18T03:56:44;-4.20;99.90
8979;DHT22;4524;51.364;5.448;2022-12-18T03:59:16;-4.20;99.90
8979;DHT22;4524;51.364;5.448;2022-12-18T04:01:47;-4.20;99.90
8979;DHT22;4524;51.364;5.448;2022-12-18T04:04:17;-4.20;99.90
8979;DHT22;4524;51.364;5.448;2022-12-18T04:06:48;-4.30;99.90
8979;DHT22;4524;51.364;5.448;2022-12-18T04:09:19;-4.30;99.90
8979;DHT22;4524;51.364;5.448;2022-12-18T04:11:48;-4.30;99.90
8979;DHT22;4524;51.364;5.448;2022-12-18T04:14:18;-4.30;99.90
8979;DHT22;4524;51.364;5.448;2022-12-18T04:16:50;-4.30;99.90
8979;DHT22;4524;51.364;5.448;2022-12-18T04:19:22;-4.30;99.90
8979;DHT22;4524;51.364;5.448;2022-12-18T04:21:52;-4.30;99.90
8979;DHT22;4524;51.364;5.448;2022-12-18T04:24:20;-4.30;99.90
8979;DHT22;4524;51.364;5.448;2022-12-18T04:27:11;-4.30;99.90
8979;DHT22;4524;51.364;5.448;2022-12-18T04:29:44;-4.30;99.90
8979;DHT22;4524;51.364;5.448;2022-12-18T04:32:14;-4.30;99.90
8979;DHT22;4524;51.364;5.448;2022-12-18T04:34:43;-4.30;99.90
8979;DHT22;4524;51.364;5.448;2022-12-18T04:37:11;-4.30;99.90
8979;DHT22;4524;51.364;5.448;2022-12-18T04:39:39;-4.30;99.90
8979;DHT22;4524;51.364;5.448;2022-12-18T04:42:14;-4.30;99.90
8979;DHT22;4524;51.364;5.448;2022-12-18T04:44:43;-4.30;99.90
8979;DHT22;4524;51.364;5.448;2022-12-18T04:47:11;-4.30;99.90
8979;DHT22;4524;51.364;5.448;2022-12-18T04:49:39;-4.30;99.90
8979;DHT22;4524;51.364;5.448;2022-12-18T04:52:07;-4.30;99.90
8979;DHT22;4524;51.364;5.448;2022-12-18T04:54:35;-4.30;99.90
8979;DHT22;4524;51.364;5.448;2022-12-18T04:57:03;-4.30;99.90
8979;DHT22;4524;51.364;5.448;2022-12-18T04:59:31;-4.30;99.90
8979;DHT22;4524;51.364;5.448;2022-12-18T05:02:00;-4.30;99.90
8979;DHT22;4524;51.364;5.448;2022-12-18T05:04:28;-4.30;99.90
8979;DHT22;4524;51.364;5.448;2022-12-18T05:06:56;-4.20;99.90
8979;DHT22;4524;51.364;5.448;2022-12-18T05:09:24;-4.20;99.90
8979;DHT22;4524;51.364;5.448;2022-12-18T05:11:52;-4.30;99.90
8979;DHT22;4524;51.364;5.448;2022-12-18T05:14:20;-4.30;99.90
8979;DHT22;4524;51.364;5.448;2022-12-18T05:16:48;-4.30;99.90
8979;DHT22;4524;51.364;5.448;2022-12-18T05:19:18;-4.40;99.90
8979;DHT22;4524;51.364;5.448;2022-12-18T05:21:46;-4.30;99.90
8979;DHT22;4524;51.364;5.448;2022-12-18T05:24:14;-4.30;99.90
8979;DHT22;4524;51.364;5.448;2022-12-18T05:26:42;-4.30;99.90
8979;DHT22;4524;51.364;5.448;2022-12-18T05:29:10;-4.20;99.90
8979;DHT22;4524;51.364;5.448;2022-12-18T05:31:40;-4.30;99.90
8979;DHT22;4524;51.364;5.448;2022-12-18T05:34:09;-4.30;99.90
8979;DHT22;4524;51.364;5.448;2022-12-18T05:36:39;-4.30;99.90
8979;DHT22;4524;51.364;5.448;2022-12-18T05:39:08;-4.30;99.90
8979;DHT22;4524;51.364;5.448;2022-12-18T05:41:36;-4.30;99.90
8979;DHT22;4524;51.364;5.448;2022-12-18T05:44:04;-4.30;99.90
8979;DHT22;4524;51.364;5.448;2022-12-18T05:46:32;-4.30;99.90
8979;DHT22;4524;51.364;5.448;2022-12-18T05:49:00;-4.30;99.90
8979;DHT22;4524;51.364;5.448;2022-12-18T05:51:28;-4.40;99.90
8979;DHT22;4524;51.364;5.448;2022-12-18T05:53:58;-4.40;99.90
8979;DHT22;4524;51.364;5.448;2022-12-18T05:56:26;-4.40;99.90
8979;DHT22;4524;51.364;5.448;2022-12-18T05:58:54;-4.40;99.90
8979;DHT22;4524;51.364;5.448;2022-12-18T06:01:24;-4.40;99.90
8979;DHT22;4524;51.364;5.448;2022-12-18T06:03:53;-4.40;99.90
8979;DHT22;4524;51.364;5.448;2022-12-18T06:06:23;-4.40;99.90
8979;DHT22;4524;51.364;5.448;2022-12-18T06:08:53;-4.40;99.90
8979;DHT22;4524;51.364;5.448;2022-12-18T06:11:24;-4.50;99.90
8979;DHT22;4524;51.364;5.448;2022-12-18T06:13:54;-4.50;99.90
8979;DHT22;4524;51.364;5.448;2022-12-18T06:16:25;-4.50;99.90
8979;DHT22;4524;51.364;5.448;2022-12-18T06:18:55;-4.50;99.90
8979;DHT22;4524;51.364;5.448;2022-12-18T06:21:23;-4.50;99.90
8979;DHT22;4524;51.364;5.448;2022-12-18T06:23:51;-4.50;99.90
8979;DHT22;4524;51.364;5.448;2022-12-18T06:26:19;-4.50;99.90
8979;DHT22;4524;51.364;5.448;2022-12-18T06:28:55;-4.40;99.90
8979;DHT22;4524;51.364;5.448;2022-12-18T06:31:23;-4.40;99.90
8979;DHT22;4524;51.364;5.448;2022-12-18T06:33:52;-4.40;99.90
8979;DHT22;4524;51.364;5.448;2022-12-18T06:36:20;-4.50;99.90
8979;DHT22;4524;51.364;5.448;2022-12-18T06:38:48;-4.50;99.90
8979;DHT22;4524;51.364;5.448;2022-12-18T06:41:18;-4.50;99.90
8979;DHT22;4524;51.364;5.448;2022-12-18T06:43:47;-4.50;99.90
8979;DHT22;4524;51.364;5.448;2022-12-18T06:46:16;-4.50;99.90
8979;DHT22;4524;51.364;5.448;2022-12-18T06:48:47;-4.50;99.90
8979;DHT22;4524;51.364;5.448;2022-12-18T06:51:17;-4.50;99.90
8979;DHT22;4524;51.364;5.448;2022-12-18T06:53:45;-4.50;99.90
8979;DHT22;4524;51.364;5.448;2022-12-18T06:56:13;-4.50;99.90
8979;DHT22;4524;51.364;5.448;2022-12-18T06:58:42;-4.60;99.90
8979;DHT22;4524;51.364;5.448;2022-12-18T07:01:11;-4.60;99.90
8979;DHT22;4524;51.364;5.448;2022-12-18T07:03:42;-4.60;99.90
8979;DHT22;4524;51.364;5.448;2022-12-18T07:06:15;-4.60;99.90
8979;DHT22;4524;51.364;5.448;2022-12-18T07:08:43;-4.60;99.90
8979;DHT22;4524;51.364;5.448;2022-12-18T07:11:11;-4.70;99.90
8979;DHT22;4524;51.364;5.448;2022-12-18T07:13:39;-4.60;99.90
8979;DHT22;4524;51.364;5.448;2022-12-18T07:16:09;-4.60;99.90
8979;DHT22;4524;51.364;5.448;2022-12-18T07:18:46;-4.60;99.90
8979;DHT22;4524;51.364;5.448;2022-12-18T07:21:31;-4.60;99.90
8979;DHT22;4524;51.364;5.448;2022-12-18T07:23:59;-4.60;99.90
8979;DHT22;4524;51.364;5.448;2022-12-18T07:26:27;-4.60;99.90
8979;DHT22;4524;51.364;5.448;2022-12-18T07:28:57;-4.60;99.90
8979;DHT22;4524;51.364;5.448;2022-12-18T07:31:26;-4.70;99.90
8979;DHT22;4524;51.364;5.448;2022-12-18T07:33:56;-4.60;99.90
8979;DHT22;4524;51.364;5.448;2022-12-18T07:36:24;-4.70;99.90
8979;DHT22;4524;51.364;5.448;2022-12-18T07:38:52;-4.70;99.90
8979;DHT22;4524;51.364;5.448;2022-12-18T07:41:21;-4.60;99.90
8979;DHT22;4524;51.364;5.448;2022-12-18T07:43:49;-4.60;99.90
8979;DHT22;4524;51.364;5.448;2022-12-18T07:46:17;-4.50;99.90
8979;DHT22;4524;51.364;5.448;2022-12-18T07:48:46;-4.50;99.90
8979;DHT22;4524;51.364;5.448;2022-12-18T07:51:17;-4.50;99.90
8979;DHT22;4524;51.364;5.448;2022-12-18T07:53:46;-4.50;99.90
8979;DHT22;4524;51.364;5.448;2022-12-18T07:56:18;-4.40;99.90
8979;DHT22;4524;51.364;5.448;2022-12-18T07:58:57;-4.40;99.90
8979;DHT22;4524;51.364;5.448;2022-12-18T08:01:25;-4.40;99.90
8979;DHT22;4524;51.364;5.448;2022-12-18T08:03:53;-4.30;99.90
8979;DHT22;4524;51.364;5.448;2022-12-18T08:06:23;-4.30;99.90
8979;DHT22;4524;51.364;5.448;2022-12-18T08:08:52;-4.20;99.90
8979;DHT22;4524;51.364;5.448;2022-12-18T08:11:21;-4.10;99.90
8979;DHT22;4524;51.364;5.448;2022-12-18T08:13:49;-4.10;99.90
8979;DHT22;4524;51.364;5.448;2022-12-18T08:16:18;-4.10;99.90
8979;DHT22;4524;51.364;5.448;2022-12-18T08:18:47;-4.10;99.90
8979;DHT22;4524;51.364;5.448;2022-12-18T08:21:18;-4.00;99.90
8979;DHT22;4524;51.364;5.448;2022-12-18T08:23:49;-4.00;99.90
8979;DHT22;4524;51.364;5.448;2022-12-18T08:26:18;-3.90;99.90
8979;DHT22;4524;51.364;5.448;2022-12-18T08:28:48;-3.80;99.90
8979;DHT22;4524;51.364;5.448;2022-12-18T08:31:17;-3.70;99.90
8979;DHT22;4524;51.364;5.448;2022-12-18T08:33:48;-3.70;99.90
8979;DHT22;4524;51.364;5.448;2022-12-18T08:36:16;-3.60;99.90
8979;DHT22;4524;51.364;5.448;2022-12-18T08:38:45;-3.50;99.90
8979;DHT22;4524;51.364;5.448;2022-12-18T08:41:15;-3.40;99.90
8979;DHT22;4524;51.364;5.448;2022-12-18T08:43:44;-3.50;99.90
8979;DHT22;4524;51.364;5.448;2022-12-18T08:46:33;-3.40;99.90
8979;DHT22;4524;51.364;5.448;2022-12-18T08:49:02;-3.40;99.90
8979;DHT22;4524;51.364;5.448;2022-12-18T08:51:30;-3.40;99.90
8979;DHT22;4524;51.364;5.448;2022-12-18T08:53:59;-3.40;99.90
8979;DHT22;4524;51.364;5.448;2022-12-18T08:56:28;-3.20;99.90
8979;DHT22;4524;51.364;5.448;2022-12-18T08:58:57;-3.20;99.90
8979;DHT22;4524;51.364;5.448;2022-12-18T09:01:25;-3.10;99.90
8979;DHT22;4524;51.364;5.448;2022-12-18T09:03:53;-3.00;99.90
8979;DHT22;4524;51.364;5.448;2022-12-18T09:06:22;-2.90;99.90
8979;DHT22;4524;51.364;5.448;2022-12-18T09:08:51;-2.90;99.90
8979;DHT22;4524;51.364;5.448;2022-12-18T09:11:21;-2.80;99.90
8979;DHT22;4524;51.364;5.448;2022-12-18T09:13:52;-2.70;99.90
8979;DHT22;4524;51.364;5.448;2022-12-18T09:16:21;-2.60;99.90
8979;DHT22;4524;51.364;5.448;2022-12-18T09:18:58;-2.60;99.90
8979;DHT22;4524;51.364;5.448;2022-12-18T09:21:28;-2.50;99.90
8979;DHT22;4524;51.364;5.448;2022-12-18T09:23:58;-2.50;99.90
8979;DHT22;4524;51.364;5.448;2022-12-18T09:26:27;-2.40;99.90
8979;DHT22;4524;51.364;5.448;2022-12-18T09:28:56;-2.30;99.90
8979;DHT22;4524;51.364;5.448;2022-12-18T09:31:25;-2.30;99.90
8979;DHT22;4524;51.364;5.448;2022-12-18T09:33:55;-2.30;99.90
8979;DHT22;4524;51.364;5.448;2022-12-18T09:36:23;-2.20;99.90
8979;DHT22;4524;51.364;5.448;2022-12-18T09:38:51;-2.20;99.90
8979;DHT22;4524;51.364;5.448;2022-12-18T09:41:36;-2.20;99.90
8979;DHT22;4524;51.364;5.448;2022-12-18T09:44:16;-2.10;99.90
8979;DHT22;4524;51.364;5.448;2022-12-18T09:46:52;-2.00;99.90
8979;DHT22;4524;51.364;5.448;2022-12-18T09:49:25;-1.90;99.90
8979;DHT22;4524;51.364;5.448;2022-12-18T09:51:57;-1.90;99.90
8979;DHT22;4524;51.364;5.448;2022-12-18T09:54:35;-1.80;99.90
8979;DHT22;4524;51.364;5.448;2022-12-18T09:57:05;-1.80;99.90
8979;DHT22;4524;51.364;5.448;2022-12-18T09:59:36;-1.70;99.90
8979;DHT22;4524;51.364;5.448;2022-12-18T10:02:14;-1.60;99.90
8979;DHT22;4524;51.364;5.448;2022-12-18T10:04:44;-1.60;99.90
8979;DHT22;4524;51.364;5.448;2022-12-18T10:07:19;-1.50;99.90
8979;DHT22;4524;51.364;5.448;2022-12-18T10:09:55;-1.50;99.90
8979;DHT22;4524;51.364;5.448;2022-12-18T10:12:30;-1.50;99.90
8979;DHT22;4524;51.364;5.448;2022-12-18T10:15:06;-1.40;99.90
8979;DHT22;4524;51.364;5.448;2022-12-18T10:17:41;-1.40;99.90
8979;DHT22;4524;51.364;5.448;2022-12-18T10:20:16;-1.20;99.90
8979;DHT22;4524;51.364;5.448;2022-12-18T10:22:51;-1.20;99.90
8979;DHT22;4524;51.364;5.448;2022-12-18T10:25:24;-1.10;99.90
8979;DHT22;4524;51.364;5.448;2022-12-18T10:27:57;-1.00;99.90
8979;DHT22;4524;51.364;5.448;2022-12-18T10:30:27;-0.90;99.90
8979;DHT22;4524;51.364;5.448;2022-12-18T10:33:00;-1.00;99.90
8979;DHT22;4524;51.364;5.448;2022-12-18T10:35:28;-1.00;99.90
8979;DHT22;4524;51.364;5.448;2022-12-18T10:38:02;-0.90;99.90
8979;DHT22;4524;51.364;5.448;2022-12-18T10:40:30;-0.90;99.90
8979;DHT22;4524;51.364;5.448;2022-12-18T10:43:09;-0.80;99.90
8979;DHT22;4524;51.364;5.448;2022-12-18T10:45:39;-0.90;99.90
8979;DHT22;4524;51.364;5.448;2022-12-18T10:48:18;-0.80;99.90
8979;DHT22;4524;51.364;5.448;2022-12-18T10:50:48;-0.70;99.90
8979;DHT22;4524;51.364;5.448;2022-12-18T10:53:37;-0.70;99.90
8979;DHT22;4524;51.364;5.448;2022-12-18T10:56:06;-0.70;99.90
8979;DHT22;4524;51.364;5.448;2022-12-18T10:58:36;-0.60;99.90
8979;DHT22;4524;51.364;5.448;2022-12-18T11:01:08;-0.50;99.90
8979;DHT22;4524;51.364;5.448;2022-12-18T11:03:39;-0.50;99.90
8979;DHT22;4524;51.364;5.448;2022-12-18T11:06:10;-0.50;99.90
8979;DHT22;4524;51.364;5.448;2022-12-18T11:08:39;-0.40;99.90
8979;DHT22;4524;51.364;5.448;2022-12-18T11:11:16;-0.40;99.90
8979;DHT22;4524;51.364;5.448;2022-12-18T11:13:56;-0.40;99.90
8979;DHT22;4524;51.364;5.448;2022-12-18T11:16:28;-0.40;99.90
8979;DHT22;4524;51.364;5.448;2022-12-18T11:21:52;-0.20;99.90
8979;DHT22;4524;51.364;5.448;2022-12-18T11:24:26;-0.20;99.90
8979;DHT22;4524;51.364;5.448;2022-12-18T11:26:56;-0.20;99.90
8979;DHT22;4524;51.364;5.448;2022-12-18T11:29:32;-0.20;99.90
8979;DHT22;4524;51.364;5.448;2022-12-18T11:32:26;-0.10;99.90
8979;DHT22;4524;51.364;5.448;2022-12-18T11:34:59;0.00;99.90
8979;DHT22;4524;51.364;5.448;2022-12-18T11:37:32;0.00;99.90
8979;DHT22;4524;51.364;5.448;2022-12-18T11:40:05;0.00;99.90
8979;DHT22;4524;51.364;5.448;2022-12-18T11:42:39;0.00;99.90
8979;DHT22;4524;51.364;5.448;2022-12-18T11:45:23;0.20;99.90
8979;DHT22;4524;51.364;5.448;2022-12-18T11:47:57;0.20;99.90
8979;DHT22;4524;51.364;5.448;2022-12-18T11:50:29;0.30;99.90
8979;DHT22;4524;51.364;5.448;2022-12-18T11:52:59;0.30;99.90
8979;DHT22;4524;51.364;5.448;2022-12-18T11:55:38;0.30;99.90
8979;DHT22;4524;51.364;5.448;2022-12-18T11:58:16;0.30;99.90
8979;DHT22;4524;51.364;5.448;2022-12-18T12:00:51;0.30;99.90
8979;DHT22;4524;51.364;5.448;2022-12-18T12:03:47;0.40;99.90
8979;DHT22;4524;51.364;5.448;2022-12-18T12:06:22;0.50;99.90
8979;DHT22;4524;51.364;5.448;2022-12-18T12:09:00;0.50;99.90
8979;DHT22;4524;51.364;5.448;2022-12-18T12:11:42;0.50;99.90
8979;DHT22;4524;51.364;5.448;2022-12-18T12:17:11;0.60;99.90
8979;DHT22;4524;51.364;5.448;2022-12-18T12:19:47;0.70;99.90
8979;DHT22;4524;51.364;5.448;2022-12-18T12:22:26;0.70;99.90
8979;DHT22;4524;51.364;5.448;2022-12-18T12:25:12;0.70;99.90
8979;DHT22;4524;51.364;5.448;2022-12-18T12:27:51;0.80;99.90
8979;DHT22;4524;51.364;5.448;2022-12-18T12:30:28;0.90;99.90
8979;DHT22;4524;51.364;5.448;2022-12-18T12:33:16;0.90;99.90
8979;DHT22;4524;51.364;5.448;2022-12-18T12:35:55;0.90;99.90
8979;DHT22;4524;51.364;5.448;2022-12-18T12:38:30;1.00;99.90
8979;DHT22;4524;51.364;5.448;2022-12-18T12:41:02;1.00;99.90
8979;DHT22;4524;51.364;5.448;2022-12-18T12:43:37;1.00;99.90
8979;DHT22;4524;51.364;5.448;2022-12-18T12:46:17;1.00;99.90
8979;DHT22;4524;51.364;5.448;2022-12-18T12:48:49;1.00;99.90
8979;DHT22;4524;51.364;5.448;2022-12-18T12:51:25;0.90;99.90
8979;DHT22;4524;51.364;5.448;2022-12-18T12:53:54;0.90;99.90
8979;DHT22;4524;51.364;5.448;2022-12-18T12:56:27;0.90;99.90
8979;DHT22;4524;51.364;5.448;2022-12-18T12:59:01;1.00;99.90
8979;DHT22;4524;51.364;5.448;2022-12-18T13:01:35;1.00;99.90
8979;DHT22;4524;51.364;5.448;2022-12-18T13:04:15;1.00;99.90
8979;DHT22;4524;51.364;5.448;2022-12-18T13:06:51;1.10;99.90
8979;DHT22;4524;51.364;5.448;2022-12-18T13:09:22;1.10;99.90
8979;DHT22;4524;51.364;5.448;2022-12-18T13:11:50;1.10;99.90
8979;DHT22;4524;51.364;5.448;2022-12-18T13:14:37;1.20;99.90
8979;DHT22;4524;51.364;5.448;2022-12-18T13:17:16;1.20;99.90
8979;DHT22;4524;51.364;5.448;2022-12-18T13:19:48;1.30;99.90
8979;DHT22;4524;51.364;5.448;2022-12-18T13:22:24;1.20;99.90
8979;DHT22;4524;51.364;5.448;2022-12-18T13:24:53;1.20;99.90
8979;DHT22;4524;51.364;5.448;2022-12-18T13:27:46;1.20;99.90
8979;DHT22;4524;51.364;5.448;2022-12-18T13:33:50;1.30;99.90
8979;DHT22;4524;51.364;5.448;2022-12-18T13:36:38;1.20;99.90
8979;DHT22;4524;51.364;5.448;2022-12-18T13:39:24;1.20;99.90
8979;DHT22;4524;51.364;5.448;2022-12-18T13:45:44;1.30;99.90
8979;DHT22;4524;51.364;5.448;2022-12-18T13:48:19;1.30;99.90
8979;DHT22;4524;51.364;5.448;2022-12-18T13:50:52;1.30;99.90
8979;DHT22;4524;51.364;5.448;2022-12-18T13:53:24;1.40;99.90
8979;DHT22;4524;51.364;5.448;2022-12-18T13:55:55;1.40;99.90
8979;DHT22;4524;51.364;5.448;2022-12-18T13:58:23;1.40;99.90
8979;DHT22;4524;51.364;5.448;2022-12-18T14:00:51;1.40;99.90
8979;DHT22;4524;51.364;5.448;2022-12-18T14:03:22;1.40;99.90
8979;DHT22;4524;51.364;5.448;2022-12-18T14:06:01;1.40;99.90
8979;DHT22;4524;51.364;5.448;2022-12-18T14:08:37;1.40;99.90
8979;DHT22;4524;51.364;5.448;2022-12-18T14:11:18;1.40;99.90
8979;DHT22;4524;51.364;5.448;2022-12-18T14:13:47;1.40;99.90
8979;DHT22;4524;51.364;5.448;2022-12-18T14:16:17;1.50;99.90
8979;DHT22;4524;51.364;5.448;2022-12-18T14:18:48;1.50;99.90
8979;DHT22;4524;51.364;5.448;2022-12-18T14:21:25;1.50;99.90
8979;DHT22;4524;51.364;5.448;2022-12-18T14:24:05;1.50;99.90
8979;DHT22;4524;51.364;5.448;2022-12-18T14:26:35;1.50;99.90
8979;DHT22;4524;51.364;5.448;2022-12-18T14:29:19;1.50;99.90
8979;DHT22;4524;51.364;5.448;2022-12-18T14:32:06;1.50;99.90
8979;DHT22;4524;51.364;5.448;2022-12-18T14:34:43;1.40;99.90
8979;DHT22;4524;51.364;5.448;2022-12-18T14:37:13;1.50;99.90
8979;DHT22;4524;51.364;5.448;2022-12-18T14:39:55;1.50;99.90
8979;DHT22;4524;51.364;5.448;2022-12-18T14:42:26;1.40;99.90
8979;DHT22;4524;51.364;5.448;2022-12-18T14:45:35;1.40;99.90
8979;DHT22;4524;51.364;5.448;2022-12-18T14:48:13;1.40;99.90
8979;DHT22;4524;51.364;5.448;2022-12-18T14:50:57;1.40;99.90
8979;DHT22;4524;51.364;5.448;2022-12-18T14:53:34;1.40;99.90
8979;DHT22;4524;51.364;5.448;2022-12-18T14:56:10;1.40;99.90
8979;DHT22;4524;51.364;5.448;2022-12-18T14:58:46;1.40;99.90
8979;DHT22;4524;51.364;5.448;2022-12-18T15:01:24;1.50;99.90
8979;DHT22;4524;51.364;5.448;2022-12-18T15:03:53;1.40;99.90
8979;DHT22;4524;51.364;5.448;2022-12-18T15:06:28;1.40;99.40
8979;DHT22;4524;51.364;5.448;2022-12-18T15:08:57;1.40;99.70
8979;DHT22;4524;51.364;5.448;2022-12-18T15:11:27;1.40;99.90
8979;DHT22;4524;51.364;5.448;2022-12-18T15:13:58;1.40;99.90
8979;DHT22;4524;51.364;5.448;2022-12-18T15:16:27;1.40;99.80
8979;DHT22;4524;51.364;5.448;2022-12-18T15:18:55;1.40;99.90
8979;DHT22;4524;51.364;5.448;2022-12-18T15:21:24;1.40;99.40
8979;DHT22;4524;51.364;5.448;2022-12-18T15:23:52;1.40;99.40
8979;DHT22;4524;51.364;5.448;2022-12-18T15:26:21;1.40;99.00
8979;DHT22;4524;51.364;5.448;2022-12-18T15:28:51;1.40;99.50
8979;DHT22;4524;51.364;5.448;2022-12-18T15:31:28;1.40;99.60
8979;DHT22;4524;51.364;5.448;2022-12-18T15:34:08;1.40;98.90
8979;DHT22;4524;51.364;5.448;2022-12-18T15:36:37;1.40;99.00
8979;DHT22;4524;51.364;5.448;2022-12-18T15:39:05;1.40;99.30
8979;DHT22;4524;51.364;5.448;2022-12-18T15:41:35;1.40;99.50
8979;DHT22;4524;51.364;5.448;2022-12-18T15:44:21;1.40;99.30
8979;DHT22;4524;51.364;5.448;2022-12-18T15:46:50;1.40;98.70
8979;DHT22;4524;51.364;5.448;2022-12-18T15:49:18;1.50;99.10
8979;DHT22;4524;51.364;5.448;2022-12-18T15:51:49;1.50;98.70
8979;DHT22;4524;51.364;5.448;2022-12-18T15:54:18;1.40;98.90
8979;DHT22;4524;51.364;5.448;2022-12-18T15:57:09;1.40;98.50
8979;DHT22;4524;51.364;5.448;2022-12-18T15:59:53;1.50;98.80
8979;DHT22;4524;51.364;5.448;2022-12-18T16:02:24;1.50;99.50
8979;DHT22;4524;51.364;5.448;2022-12-18T16:04:52;1.50;98.90
8979;DHT22;4524;51.364;5.448;2022-12-18T16:07:21;1.60;99.90
8979;DHT22;4524;51.364;5.448;2022-12-18T16:09:53;1.50;99.70
8979;DHT22;4524;51.364;5.448;2022-12-18T16:12:24;1.50;97.90
8979;DHT22;4524;51.364;5.448;2022-12-18T16:14:52;1.50;99.90
8979;DHT22;4524;51.364;5.448;2022-12-18T16:17:20;1.40;99.30
8979;DHT22;4524;51.364;5.448;2022-12-18T16:19:49;1.50;99.60
8979;DHT22;4524;51.364;5.448;2022-12-18T16:22:19;1.50;99.10
8979;DHT22;4524;51.364;5.448;2022-12-18T16:24:49;1.50;99.10
8979;DHT22;4524;51.364;5.448;2022-12-18T16:27:18;1.50;99.20
8979;DHT22;4524;51.364;5.448;2022-12-18T16:29:46;1.40;99.90
8979;DHT22;4524;51.364;5.448;2022-12-18T16:32:16;1.40;99.70
8979;DHT22;4524;51.364;5.448;2022-12-18T16:34:45;1.40;99.70
8979;DHT22;4524;51.364;5.448;2022-12-18T16:37:16;1.40;99.60
8979;DHT22;4524;51.364;5.448;2022-12-18T16:39:44;1.40;99.20
8979;DHT22;4524;51.364;5.448;2022-12-18T16:42:14;1.40;99.50
8979;DHT22;4524;51.364;5.448;2022-12-18T16:44:44;1.40;99.60
8979;DHT22;4524;51.364;5.448;2022-12-18T16:47:13;1.40;99.90
8979;DHT22;4524;51.364;5.448;2022-12-18T16:49:41;1.40;99.40
8979;DHT22;4524;51.364;5.448;2022-12-18T16:52:12;1.40;99.90
8979;DHT22;4524;51.364;5.448;2022-12-18T16:54:42;1.40;99.90